Time,TemperatureF,DewpointF,PressureIn,WindDirection,WindDirectionDegrees,WindSpeedMPH,WindSpeedGustMPH,Humidity,HourlyPrecipIn,Conditions,Clouds,dailyrainin,SoftwareType,DateUTC
2013-01-20 00:04:00,24.4,13.6,30.54,NE,49,0.0,0.0,63,0.00,,,0.00,Wunderground v.1.15,2013-01-20 07:04:00,
2013-01-20 00:09:00,24.2,13.4,30.54,NE,49,0.0,0.0,63,0.00,,,0.00,Wunderground v.1.15,2013-01-20 07:09:00,
2013-01-20 00:14:00,23.9,13.1,30.54,NE,49,0.0,0.0,63,0.00,,,0.00,Wunderground v.1.15,2013-01-20 07:14:00,
2013-01-20 00:20:00,23.7,13.3,30.54,NE,49,0.0,0.0,64,0.00,,,0.00,Wunderground v.1.15,2013-01-20 07:20:00,
2013-01-20 00:29:00,23.3,13.6,30.53,NE,49,0.0,0.0,66,0.00,,,0.00,Wunderground v.1.15,2013-01-20 07:29:00,
2013-01-20 00:34:00,23.1,13.8,30.53,NE,49,0.0,0.0,67,0.00,,,0.00,Wunderground v.1.15,2013-01-20 07:34:00,
2013-01-20 00:40:00,22.9,13.2,30.53,NE,49,0.0,0.0,66,0.00,,,0.00,Wunderground v.1.15,2013-01-20 07:40:00,
2013-01-20 00:45:00,22.7,13.4,30.53,NE,49,0.0,0.0,67,0.00,,,0.00,Wunderground v.1.15,2013-01-20 07:45:00,
2013-01-20 00:55:00,22.6,14.0,30.53,NE,49,0.0,0.0,69,0.00,,,0.00,Wunderground v.1.15,2013-01-20 07:55:00,
2013-01-20 00:59:00,23.6,14.9,30.53,NE,49,0.0,0.0,69,0.00,,,0.00,Wunderground v.1.15,2013-01-20 07:59:00,
2013-01-20 01:04:00,24.7,15.3,30.53,NE,49,0.0,0.0,67,0.00,,,0.00,Wunderground v.1.15,2013-01-20 08:04:00,
2013-01-20 01:09:00,26.2,15.7,30.53,NE,49,0.0,0.0,64,0.00,,,0.00,Wunderground v.1.15,2013-01-20 08:09:00,
2013-01-20 01:14:00,27.1,16.2,30.53,NE,49,0.0,0.0,63,0.00,,,0.00,Wunderground v.1.15,2013-01-20 08:14:00,
2013-01-20 01:20:00,27.8,16.1,30.54,NE,49,0.0,0.0,61,0.00,,,0.00,Wunderground v.1.15,2013-01-20 08:20:00,
2013-01-20 01:25:00,28.0,15.5,30.54,NE,49,0.0,0.0,59,0.00,,,0.00,Wunderground v.1.15,2013-01-20 08:25:00,
2013-01-20 01:30:00,27.9,15.4,30.54,NE,49,0.0,0.0,59,0.00,,,0.00,Wunderground v.1.15,2013-01-20 08:30:00,
2013-01-20 01:35:00,27.6,15.1,30.54,NE,47,0.0,0.0,59,0.00,,,0.00,Wunderground v.1.15,2013-01-20 08:35:00,
2013-01-20 01:40:00,27.4,15.3,30.53,NE,47,0.0,0.0,60,0.00,,,0.00,Wunderground v.1.15,2013-01-20 08:40:00,
2013-01-20 01:45:00,27.3,15.2,30.54,NE,47,0.0,0.0,60,0.00,,,0.00,Wunderground v.1.15,2013-01-20 08:45:00,
2013-01-20 01:50:00,27.2,14.8,30.54,NE,47,0.0,0.0,59,0.00,,,0.00,Wunderground v.1.15,2013-01-20 08:50:00,
2013-01-20 01:55:00,27.0,14.6,30.53,NE,47,0.0,0.0,59,0.00,,,0.00,Wunderground v.1.15,2013-01-20 08:55:00,
2013-01-20 02:00:00,26.6,14.6,30.53,NE,47,0.0,0.0,60,0.00,,,0.00,Wunderground v.1.15,2013-01-20 09:00:00,
2013-01-20 02:04:00,26.2,13.8,30.53,NE,47,0.0,0.0,59,0.00,,,0.00,Wunderground v.1.15,2013-01-20 09:04:00,
2013-01-20 02:09:00,25.9,13.9,30.53,NE,47,0.0,0.0,60,0.00,,,0.00,Wunderground v.1.15,2013-01-20 09:09:00,
2013-01-20 02:19:00,25.2,14.0,30.53,NE,47,0.0,0.0,62,0.00,,,0.00,Wunderground v.1.15,2013-01-20 09:19:00,
2013-01-20 02:25:00,24.9,14.1,30.53,NE,47,0.0,0.0,63,0.00,,,0.00,Wunderground v.1.15,2013-01-20 09:25:00,
2013-01-20 02:30:00,24.8,14.3,30.53,NE,47,0.0,0.0,64,0.00,,,0.00,Wunderground v.1.15,2013-01-20 09:30:00,
2013-01-20 02:35:00,25.1,14.3,30.53,NE,47,0.0,0.0,63,0.00,,,0.00,Wunderground v.1.15,2013-01-20 09:35:00,
2013-01-20 02:40:00,25.0,14.2,30.53,NE,47,0.0,0.0,63,0.00,,,0.00,Wunderground v.1.15,2013-01-20 09:40:00,
2013-01-20 02:45:00,24.9,14.1,30.53,NE,47,0.0,0.0,63,0.00,,,0.00,Wunderground v.1.15,2013-01-20 09:45:00,
2013-01-20 02:50:00,25.1,14.6,30.53,NE,47,0.0,0.0,64,0.00,,,0.00,Wunderground v.1.15,2013-01-20 09:50:00,
2013-01-20 02:54:00,25.7,14.8,30.53,NE,46,0.0,0.0,63,0.00,,,0.00,Wunderground v.1.15,2013-01-20 09:54:00,
2013-01-20 02:59:00,26.2,14.9,30.53,NE,46,0.0,0.0,62,0.00,,,0.00,Wunderground v.1.15,2013-01-20 09:59:00,
2013-01-20 03:04:00,26.2,14.6,30.53,NE,46,0.0,0.0,61,0.00,,,0.00,Wunderground v.1.15,2013-01-20 10:04:00,
2013-01-20 03:10:00,26.0,14.4,30.52,NE,46,0.0,0.0,61,0.00,,,0.00,Wunderground v.1.15,2013-01-20 10:10:00,
2013-01-20 03:15:00,25.9,14.3,30.52,NE,46,0.0,0.0,61,0.00,,,0.00,Wunderground v.1.15,2013-01-20 10:15:00,
2013-01-20 03:20:00,25.9,14.3,30.52,NE,46,0.0,0.0,61,0.00,,,0.00,Wunderground v.1.15,2013-01-20 10:20:00,
2013-01-20 03:25:00,25.7,14.1,30.52,NE,46,0.0,0.0,61,0.00,,,0.00,Wunderground v.1.15,2013-01-20 10:25:00,
2013-01-20 03:29:00,25.3,13.7,30.52,NE,46,0.0,0.0,61,0.00,,,0.00,Wunderground v.1.15,2013-01-20 10:29:00,
2013-01-20 03:34:00,24.8,13.6,30.52,NE,46,0.0,0.0,62,0.00,,,0.00,Wunderground v.1.15,2013-01-20 10:34:00,
2013-01-20 03:39:00,24.2,13.0,30.52,NE,46,0.0,0.0,62,0.00,,,0.00,Wunderground v.1.15,2013-01-20 10:39:00,
2013-01-20 03:44:00,23.6,12.8,30.52,NE,46,0.0,0.0,63,0.00,,,0.00,Wunderground v.1.15,2013-01-20 10:44:00,
2013-01-20 03:49:00,23.1,12.7,30.52,NE,46,0.0,0.0,64,0.00,,,0.00,Wunderground v.1.15,2013-01-20 10:49:00,
2013-01-20 03:55:00,22.8,12.8,30.52,NE,46,0.0,0.0,65,0.00,,,0.00,Wunderground v.1.15,2013-01-20 10:55:00,
2013-01-20 04:00:00,22.8,12.8,30.52,NE,46,0.0,0.0,65,0.00,,,0.00,Wunderground v.1.15,2013-01-20 11:00:00,
2013-01-20 04:05:00,23.0,13.0,30.52,NE,46,0.0,0.0,65,0.00,,,0.00,Wunderground v.1.15,2013-01-20 11:05:00,
2013-01-20 04:10:00,22.9,12.9,30.52,NE,46,0.0,0.0,65,0.00,,,0.00,Wunderground v.1.15,2013-01-20 11:10:00,
2013-01-20 04:15:00,22.8,12.8,30.52,NE,46,0.0,0.0,65,0.00,,,0.00,Wunderground v.1.15,2013-01-20 11:15:00,
2013-01-20 04:20:00,22.5,12.5,30.52,NE,46,0.0,0.0,65,0.00,,,0.00,Wunderground v.1.15,2013-01-20 11:20:00,
2013-01-20 04:29:00,21.5,11.9,30.52,NE,46,0.0,0.0,66,0.00,,,0.00,Wunderground v.1.15,2013-01-20 11:29:00,
2013-01-20 04:34:00,21.2,11.9,30.52,NE,46,0.0,0.0,67,0.00,,,0.00,Wunderground v.1.15,2013-01-20 11:34:00,
2013-01-20 04:39:00,21.1,11.8,30.52,NE,46,0.0,0.0,67,0.00,,,0.00,Wunderground v.1.15,2013-01-20 11:39:00,
2013-01-20 04:44:00,20.9,11.7,30.52,NE,46,0.0,0.0,67,0.00,,,0.00,Wunderground v.1.15,2013-01-20 11:44:00,
2013-01-20 04:49:00,20.8,11.6,30.52,NE,46,0.0,0.0,67,0.00,,,0.00,Wunderground v.1.15,2013-01-20 11:49:00,
2013-01-20 04:55:00,20.6,11.7,30.52,NE,46,0.0,0.0,68,0.00,,,0.00,Wunderground v.1.15,2013-01-20 11:55:00,
2013-01-20 05:00:00,20.5,11.3,30.52,NE,46,0.0,0.0,67,0.00,,,0.00,Wunderground v.1.15,2013-01-20 12:00:00,
2013-01-20 05:05:00,20.3,11.4,30.52,NE,46,0.0,0.0,68,0.00,,,0.00,Wunderground v.1.15,2013-01-20 12:05:00,
2013-01-20 05:15:00,19.6,10.7,30.52,NE,46,0.0,0.0,68,0.00,,,0.00,Wunderground v.1.15,2013-01-20 12:15:00,
2013-01-20 05:19:00,19.2,11.0,30.52,NE,46,0.0,0.0,70,0.00,,,0.00,Wunderground v.1.15,2013-01-20 12:19:00,
2013-01-20 05:24:00,19.1,11.2,30.53,NE,46,0.0,0.0,71,0.00,,,0.00,Wunderground v.1.15,2013-01-20 12:24:00,
2013-01-20 05:29:00,19.0,11.1,30.53,NE,46,0.0,0.0,71,0.00,,,0.00,Wunderground v.1.15,2013-01-20 12:29:00,
2013-01-20 05:35:00,18.9,11.0,30.53,NE,46,0.0,0.0,71,0.00,,,0.00,Wunderground v.1.15,2013-01-20 12:35:00,
2013-01-20 05:40:00,19.1,10.9,30.53,NE,46,0.0,0.0,70,0.00,,,0.00,Wunderground v.1.15,2013-01-20 12:40:00,
2013-01-20 05:45:00,19.2,10.7,30.53,NE,46,0.0,0.0,69,0.00,,,0.00,Wunderground v.1.15,2013-01-20 12:45:00,
2013-01-20 05:50:00,19.1,10.6,30.53,NE,46,0.0,0.0,69,0.00,,,0.00,Wunderground v.1.15,2013-01-20 12:50:00,
2013-01-20 05:59:00,18.5,10.3,30.52,NE,46,0.0,0.0,70,0.00,,,0.00,Wunderground v.1.15,2013-01-20 12:59:00,
2013-01-20 06:04:00,18.4,10.2,30.52,NE,46,0.0,0.0,70,0.00,,,0.00,Wunderground v.1.15,2013-01-20 13:04:00,
2013-01-20 06:14:00,17.9,10.1,30.52,NE,46,0.0,0.0,71,0.00,,,0.00,Wunderground v.1.15,2013-01-20 13:14:00,
2013-01-20 06:19:00,17.7,10.2,30.52,NE,46,0.0,0.0,72,0.00,,,0.00,Wunderground v.1.15,2013-01-20 13:19:00,
2013-01-20 06:25:00,18.0,10.2,30.52,NE,46,0.0,0.0,71,0.00,,,0.00,Wunderground v.1.15,2013-01-20 13:25:00,
2013-01-20 06:30:00,18.1,10.6,30.52,NE,46,0.0,0.0,72,0.00,,,0.00,Wunderground v.1.15,2013-01-20 13:30:00,
2013-01-20 06:35:00,18.3,10.8,30.52,NE,46,0.0,0.0,72,0.00,,,0.00,Wunderground v.1.15,2013-01-20 13:35:00,
2013-01-20 06:40:00,18.7,11.2,30.52,NE,46,0.0,0.0,72,0.00,,,0.00,Wunderground v.1.15,2013-01-20 13:40:00,
2013-01-20 06:45:00,18.8,10.9,30.53,NE,46,0.0,0.0,71,0.00,,,0.00,Wunderground v.1.15,2013-01-20 13:45:00,
2013-01-20 06:50:00,18.7,10.9,30.53,NE,46,0.0,0.0,71,0.00,,,0.00,Wunderground v.1.15,2013-01-20 13:50:00,
2013-01-20 06:54:00,18.5,10.7,30.53,NE,46,0.0,0.0,71,0.00,,,0.00,Wunderground v.1.15,2013-01-20 13:54:00,
2013-01-20 06:59:00,18.2,10.1,30.53,NE,46,0.0,0.0,70,0.00,,,0.00,Wunderground v.1.15,2013-01-20 13:59:00,
2013-01-20 07:05:00,18.0,10.2,30.53,NE,46,0.0,0.0,71,0.00,,,0.00,Wunderground v.1.15,2013-01-20 14:05:00,
2013-01-20 07:10:00,17.9,10.1,30.53,NE,46,0.0,0.0,71,0.00,,,0.00,Wunderground v.1.15,2013-01-20 14:10:00,
2013-01-20 07:15:00,17.7,9.9,30.53,NE,46,0.0,0.0,71,0.00,,,0.00,Wunderground v.1.15,2013-01-20 14:15:00,
2013-01-20 07:20:00,17.4,9.6,30.53,NE,46,0.0,0.0,71,0.00,,,0.00,Wunderground v.1.15,2013-01-20 14:20:00,
2013-01-20 07:25:00,17.2,9.7,30.53,NE,46,0.0,0.0,72,0.00,,,0.00,Wunderground v.1.15,2013-01-20 14:25:00,
2013-01-20 07:30:00,17.0,9.5,30.53,NE,46,0.0,0.0,72,0.00,,,0.00,Wunderground v.1.15,2013-01-20 14:30:00,
2013-01-20 07:35:00,16.9,9.4,30.53,NE,46,0.0,0.0,72,0.00,,,0.00,Wunderground v.1.15,2013-01-20 14:35:00,
2013-01-20 07:40:00,17.2,9.7,30.53,NE,46,0.0,0.0,72,0.00,,,0.00,Wunderground v.1.15,2013-01-20 14:40:00,
2013-01-20 07:45:00,17.4,10.2,30.53,NE,46,0.0,0.0,73,0.00,,,0.00,Wunderground v.1.15,2013-01-20 14:45:00,
2013-01-20 07:50:00,17.6,10.1,30.53,NE,46,0.0,0.0,72,0.00,,,0.00,Wunderground v.1.15,2013-01-20 14:50:00,
2013-01-20 07:59:00,17.7,9.9,30.53,NE,46,0.0,0.0,71,0.00,,,0.00,Wunderground v.1.15,2013-01-20 14:59:00,
2013-01-20 08:04:00,17.9,10.7,30.53,NE,46,0.0,0.0,73,0.00,,,0.00,Wunderground v.1.15,2013-01-20 15:04:00,
2013-01-20 08:10:00,18.5,11.3,30.53,NE,46,0.0,0.0,73,0.00,,,0.00,Wunderground v.1.15,2013-01-20 15:10:00,
2013-01-20 08:15:00,19.4,12.2,30.53,NE,46,0.0,0.0,73,0.00,,,0.00,Wunderground v.1.15,2013-01-20 15:15:00,
2013-01-20 08:20:00,20.3,12.7,30.53,NE,46,0.0,0.0,72,0.00,,,0.00,Wunderground v.1.15,2013-01-20 15:20:00,
2013-01-20 08:25:00,21.9,13.0,30.53,North,351,0.0,4.0,68,0.00,,,0.00,Wunderground v.1.15,2013-01-20 15:25:00,
2013-01-20 08:30:00,23.8,13.0,30.53,North,350,0.0,0.0,63,0.00,,,0.00,Wunderground v.1.15,2013-01-20 15:30:00,
2013-01-20 08:34:00,25.3,13.0,30.53,North,350,0.0,1.0,59,0.00,,,0.00,Wunderground v.1.15,2013-01-20 15:34:00,
2013-01-20 08:44:00,26.9,12.9,30.54,NNW,327,1.0,1.0,55,0.00,,,0.00,Wunderground v.1.15,2013-01-20 15:44:00,
2013-01-20 08:49:00,27.6,12.7,30.54,NW,323,1.0,1.0,53,0.00,,,0.00,Wunderground v.1.15,2013-01-20 15:49:00,
2013-01-20 08:54:00,28.1,12.7,30.54,NW,313,1.0,1.0,52,0.00,,,0.00,Wunderground v.1.15,2013-01-20 15:54:00,
2013-01-20 08:59:00,28.6,12.7,30.54,NW,313,1.0,3.0,51,0.00,,,0.00,Wunderground v.1.15,2013-01-20 15:59:00,
2013-01-20 09:05:00,29.2,12.4,30.54,NNW,337,1.0,3.0,49,0.00,,,0.00,Wunderground v.1.15,2013-01-20 16:05:00,
2013-01-20 09:10:00,29.8,12.9,30.54,NNW,338,1.0,2.0,49,0.00,,,0.00,Wunderground v.1.15,2013-01-20 16:10:00,
2013-01-20 09:15:00,30.1,12.7,30.54,North,355,2.0,2.0,48,0.00,,,0.00,Wunderground v.1.15,2013-01-20 16:15:00,
2013-01-20 09:20:00,30.3,12.5,30.54,NNW,338,2.0,2.0,47,0.00,,,0.00,Wunderground v.1.15,2013-01-20 16:20:00,
2013-01-20 09:25:00,30.4,12.5,30.54,NNW,331,2.0,2.0,47,0.00,,,0.00,Wunderground v.1.15,2013-01-20 16:25:00,
2013-01-20 09:30:00,30.5,12.6,30.54,NNW,346,2.0,2.0,47,0.00,,,0.00,Wunderground v.1.15,2013-01-20 16:30:00,
2013-01-20 09:39:00,31.2,12.3,30.54,NNW,333,2.0,2.0,45,0.00,,,0.00,Wunderground v.1.15,2013-01-20 16:39:00,
2013-01-20 09:44:00,31.7,12.8,30.54,NNW,338,2.0,2.0,45,0.00,,,0.00,Wunderground v.1.15,2013-01-20 16:44:00,
2013-01-20 09:49:00,32.5,13.0,30.54,NW,324,2.0,2.0,44,0.00,,,0.00,Wunderground v.1.15,2013-01-20 16:49:00,
2013-01-20 09:54:00,33.0,12.9,30.54,NW,311,2.0,2.0,43,0.00,,,0.00,Wunderground v.1.15,2013-01-20 16:54:00,
2013-01-20 09:59:00,33.4,13.3,30.54,NNW,335,2.0,2.0,43,0.00,,,0.00,Wunderground v.1.15,2013-01-20 16:59:00,
2013-01-20 10:05:00,33.9,13.2,30.54,NW,321,2.0,4.0,42,0.00,,,0.00,Wunderground v.1.15,2013-01-20 17:05:00,
2013-01-20 10:10:00,34.2,12.9,30.53,North,349,2.0,3.0,41,0.00,,,0.00,Wunderground v.1.15,2013-01-20 17:10:00,
2013-01-20 10:15:00,34.4,13.1,30.53,NW,326,3.0,3.0,41,0.00,,,0.00,Wunderground v.1.15,2013-01-20 17:15:00,
2013-01-20 10:20:00,35.0,13.6,30.53,NNW,342,2.0,2.0,41,0.00,,,0.00,Wunderground v.1.15,2013-01-20 17:20:00,
2013-01-20 10:29:00,36.7,14.6,30.52,NW,317,2.0,2.0,40,0.00,,,0.00,Wunderground v.1.15,2013-01-20 17:29:00,
2013-01-20 10:34:00,37.6,14.8,30.52,NNW,346,1.0,2.0,39,0.00,,,0.00,Wunderground v.1.15,2013-01-20 17:34:00,
2013-01-20 10:39:00,38.1,14.7,30.52,NW,325,2.0,3.0,38,0.00,,,0.00,Wunderground v.1.15,2013-01-20 17:39:00,
2013-01-20 10:44:00,38.5,14.4,30.52,North,355,2.0,3.0,37,0.00,,,0.00,Wunderground v.1.15,2013-01-20 17:44:00,
2013-01-20 10:50:00,38.9,14.8,30.52,NNW,340,2.0,2.0,37,0.00,,,0.00,Wunderground v.1.15,2013-01-20 17:50:00,
2013-01-20 11:00:00,40.3,14.8,30.51,WNW,288,2.0,2.0,35,0.00,,,0.00,Wunderground v.1.15,2013-01-20 18:00:00,
2013-01-20 11:05:00,40.5,14.3,30.51,NNW,329,2.0,2.0,34,0.00,,,0.00,Wunderground v.1.15,2013-01-20 18:05:00,
2013-01-20 11:10:00,40.7,14.5,30.51,NNW,333,2.0,2.0,34,0.00,,,0.00,Wunderground v.1.15,2013-01-20 18:10:00,
2013-01-20 11:15:00,41.1,14.8,30.50,NNW,327,2.0,2.0,34,0.00,,,0.00,Wunderground v.1.15,2013-01-20 18:15:00,
2013-01-20 11:20:00,41.7,15.4,30.50,NNW,327,2.0,2.0,34,0.00,,,0.00,Wunderground v.1.15,2013-01-20 18:20:00,
2013-01-20 11:24:00,42.0,14.9,30.49,NNW,333,2.0,2.0,33,0.00,,,0.00,Wunderground v.1.15,2013-01-20 18:24:00,
2013-01-20 11:34:00,43.2,15.3,30.48,WNW,283,1.0,4.0,32,0.00,,,0.00,Wunderground v.1.15,2013-01-20 18:34:00,
2013-01-20 11:45:00,44.2,15.4,30.47,NW,311,1.0,2.0,31,0.00,,,0.00,Wunderground v.1.15,2013-01-20 18:45:00,
2013-01-20 11:50:00,44.3,14.8,30.47,NNW,333,1.0,1.0,30,0.00,,,0.00,Wunderground v.1.15,2013-01-20 18:50:00,
2013-01-20 11:55:00,44.4,14.9,30.47,NW,322,2.0,2.0,30,0.00,,,0.00,Wunderground v.1.15,2013-01-20 18:55:00,
2013-01-20 12:00:00,45.0,16.1,30.46,SSW,213,2.0,2.0,31,0.00,,,0.00,Wunderground v.1.15,2013-01-20 19:00:00,
2013-01-20 12:05:00,45.6,15.1,30.46,NW,315,1.0,2.0,29,0.00,,,0.00,Wunderground v.1.15,2013-01-20 19:05:00,
2013-01-20 12:10:00,46.0,15.5,30.45,West,275,1.0,1.0,29,0.00,,,0.00,Wunderground v.1.15,2013-01-20 19:10:00,
2013-01-20 12:15:00,46.5,15.9,30.45,West,271,2.0,2.0,29,0.00,,,0.00,Wunderground v.1.15,2013-01-20 19:15:00,
2013-01-20 12:20:00,47.1,15.6,30.45,NW,321,2.0,2.0,28,0.00,,,0.00,Wunderground v.1.15,2013-01-20 19:20:00,
2013-01-20 12:24:00,47.6,16.1,30.44,NW,318,1.0,2.0,28,0.00,,,0.00,Wunderground v.1.15,2013-01-20 19:24:00,
2013-01-20 12:29:00,48.0,15.6,30.44,NNW,344,1.0,6.0,27,0.00,,,0.00,Wunderground v.1.15,2013-01-20 19:29:00,
2013-01-20 12:34:00,47.9,15.5,30.44,NW,326,1.0,6.0,27,0.00,,,0.00,Wunderground v.1.15,2013-01-20 19:34:00,
2013-01-20 12:39:00,48.2,14.9,30.43,NNW,342,2.0,2.0,26,0.00,,,0.00,Wunderground v.1.15,2013-01-20 19:39:00,
2013-01-20 12:45:00,48.2,14.9,30.43,NNW,342,1.0,2.0,26,0.00,,,0.00,Wunderground v.1.15,2013-01-20 19:45:00,
2013-01-20 12:50:00,48.8,15.4,30.42,NNW,344,1.0,1.0,26,0.00,,,0.00,Wunderground v.1.15,2013-01-20 19:50:00,
2013-01-20 12:55:00,48.7,14.4,30.42,NNW,344,2.0,2.0,25,0.00,,,0.00,Wunderground v.1.15,2013-01-20 19:55:00,
2013-01-20 13:00:00,48.9,14.6,30.42,NNW,344,1.0,1.0,25,0.00,,,0.00,Wunderground v.1.15,2013-01-20 20:00:00,
2013-01-20 13:05:00,49.1,13.8,30.41,NW,325,2.0,2.0,24,0.00,,,0.00,Wunderground v.1.15,2013-01-20 20:05:00,
2013-01-20 13:10:00,49.4,14.1,30.41,NW,326,1.0,2.0,24,0.00,,,0.00,Wunderground v.1.15,2013-01-20 20:10:00,
2013-01-20 13:19:00,49.5,15.1,30.41,NW,323,2.0,2.0,25,0.00,,,0.00,Wunderground v.1.15,2013-01-20 20:19:00,
2013-01-20 13:24:00,50.1,14.7,30.41,NW,315,1.0,2.0,24,0.00,,,0.00,Wunderground v.1.15,2013-01-20 20:24:00,
2013-01-20 13:29:00,50.4,14.9,30.40,NW,314,1.0,1.0,24,0.00,,,0.00,Wunderground v.1.15,2013-01-20 20:29:00,
2013-01-20 13:34:00,50.7,15.2,30.40,NW,314,1.0,1.0,24,0.00,,,0.00,Wunderground v.1.15,2013-01-20 20:34:00,
2013-01-20 13:39:00,51.2,14.6,30.40,NW,313,1.0,1.0,23,0.00,,,0.00,Wunderground v.1.15,2013-01-20 20:39:00,
2013-01-20 13:45:00,51.7,15.0,30.40,NW,313,1.0,2.0,23,0.00,,,0.00,Wunderground v.1.15,2013-01-20 20:45:00,
2013-01-20 13:50:00,51.5,14.9,30.40,NW,319,1.0,1.0,23,0.00,,,0.00,Wunderground v.1.15,2013-01-20 20:50:00,
2013-01-20 13:55:00,51.2,13.6,30.39,NNE,20,1.0,1.0,22,0.00,,,0.00,Wunderground v.1.15,2013-01-20 20:55:00,
2013-01-20 14:00:00,51.0,14.4,30.39,NNE,20,1.0,1.0,23,0.00,,,0.00,Wunderground v.1.15,2013-01-20 21:00:00,
2013-01-20 14:05:00,51.4,13.8,30.39,NNE,28,0.0,1.0,22,0.00,,,0.00,Wunderground v.1.15,2013-01-20 21:05:00,
2013-01-20 14:10:00,51.5,13.8,30.39,ENE,77,1.0,1.0,22,0.00,,,0.00,Wunderground v.1.15,2013-01-20 21:10:00,
2013-01-20 14:14:00,51.7,14.0,30.39,ENE,78,1.0,1.0,22,0.00,,,0.00,Wunderground v.1.15,2013-01-20 21:14:00,
2013-01-20 14:19:00,51.9,14.2,30.39,East,81,0.0,0.0,22,0.00,,,0.00,Wunderground v.1.15,2013-01-20 21:19:00,
2013-01-20 14:24:00,52.1,14.4,30.39,East,88,1.0,1.0,22,0.00,,,0.00,Wunderground v.1.15,2013-01-20 21:24:00,
2013-01-20 14:29:00,52.8,13.9,30.39,East,89,1.0,1.0,21,0.00,,,0.00,Wunderground v.1.15,2013-01-20 21:29:00,
2013-01-20 14:34:00,53.3,14.3,30.38,East,88,1.0,3.0,21,0.00,,,0.00,Wunderground v.1.15,2013-01-20 21:34:00,
2013-01-20 14:39:00,53.3,14.3,30.38,ENE,67,1.0,4.0,21,0.00,,,0.00,Wunderground v.1.15,2013-01-20 21:39:00,
2013-01-20 14:44:00,53.4,14.4,30.38,ENE,57,1.0,4.0,21,0.00,,,0.00,Wunderground v.1.15,2013-01-20 21:44:00,
2013-01-20 14:50:00,53.3,14.3,30.38,ENE,60,1.0,1.0,21,0.00,,,0.00,Wunderground v.1.15,2013-01-20 21:50:00,
2013-01-20 14:55:00,53.2,14.2,30.38,ENE,60,1.0,1.0,21,0.00,,,0.00,Wunderground v.1.15,2013-01-20 21:55:00,
2013-01-20 15:00:00,53.5,14.5,30.38,ENE,60,0.0,0.0,21,0.00,,,0.00,Wunderground v.1.15,2013-01-20 22:00:00,
2013-01-20 15:05:00,54.1,13.9,30.38,ENE,63,1.0,2.0,20,0.00,,,0.00,Wunderground v.1.15,2013-01-20 22:05:00,
2013-01-20 15:10:00,54.0,13.8,30.38,ENE,63,1.0,1.0,20,0.00,,,0.00,Wunderground v.1.15,2013-01-20 22:10:00,
2013-01-20 15:15:00,54.5,14.2,30.38,East,90,1.0,1.0,20,0.00,,,0.00,Wunderground v.1.15,2013-01-20 22:15:00,
2013-01-20 15:25:00,54.4,14.1,30.38,ESE,114,1.0,3.0,20,0.00,,,0.00,Wunderground v.1.15,2013-01-20 22:25:00,
2013-01-20 15:34:00,54.8,13.3,30.38,SSE,158,1.0,1.0,19,0.00,,,0.00,Wunderground v.1.15,2013-01-20 22:34:00,
2013-01-20 15:39:00,54.6,14.3,30.38,SSE,160,1.0,1.0,20,0.00,,,0.00,Wunderground v.1.15,2013-01-20 22:39:00,
2013-01-20 15:50:00,54.6,13.1,30.37,SSE,168,0.0,1.0,19,0.00,,,0.00,Wunderground v.1.15,2013-01-20 22:50:00,
2013-01-20 15:55:00,54.1,12.7,30.37,SSE,167,0.0,1.0,19,0.00,,,0.00,Wunderground v.1.15,2013-01-20 22:55:00,
2013-01-20 16:00:00,54.6,13.1,30.37,SSE,167,1.0,1.0,19,0.00,,,0.00,Wunderground v.1.15,2013-01-20 23:00:00,
2013-01-20 16:05:00,54.7,13.2,30.37,SSE,167,0.0,1.0,19,0.00,,,0.00,Wunderground v.1.15,2013-01-20 23:05:00,
2013-01-20 16:10:00,55.1,13.5,30.37,SSE,167,0.0,0.0,19,0.00,,,0.00,Wunderground v.1.15,2013-01-20 23:10:00,
2013-01-20 16:15:00,55.3,12.4,30.37,SSE,167,0.0,0.0,18,0.00,,,0.00,Wunderground v.1.15,2013-01-20 23:15:00,
2013-01-20 16:24:00,55.6,12.7,30.38,SSE,167,0.0,0.0,18,0.00,,,0.00,Wunderground v.1.15,2013-01-20 23:24:00,
2013-01-20 16:29:00,55.7,12.8,30.38,SSE,167,0.0,5.0,18,0.00,,,0.00,Wunderground v.1.15,2013-01-20 23:29:00,
2013-01-20 16:34:00,54.8,12.0,30.38,SSE,167,0.0,5.0,18,0.00,,,0.00,Wunderground v.1.15,2013-01-20 23:34:00,
2013-01-20 16:40:00,54.2,12.8,30.38,SSE,167,0.0,0.0,19,0.00,,,0.00,Wunderground v.1.15,2013-01-20 23:40:00,
2013-01-20 16:44:00,54.0,12.6,30.38,SSE,167,0.0,0.0,19,0.00,,,0.00,Wunderground v.1.15,2013-01-20 23:44:00,
2013-01-20 16:49:00,53.6,12.3,30.38,SSE,167,0.0,0.0,19,0.00,,,0.00,Wunderground v.1.15,2013-01-20 23:49:00,
2013-01-20 16:54:00,53.1,11.9,30.38,SSE,167,0.0,0.0,19,0.00,,,0.00,Wunderground v.1.15,2013-01-20 23:54:00,
2013-01-20 16:59:00,52.6,11.4,30.38,SSE,167,0.0,0.0,19,0.00,,,0.00,Wunderground v.1.15,2013-01-20 23:59:00,
2013-01-20 17:05:00,52.1,11.0,30.38,SSE,167,0.0,0.0,19,0.00,,,0.00,Wunderground v.1.15,2013-01-21 00:05:00,
2013-01-20 17:10:00,51.4,11.6,30.38,SSE,167,0.0,0.0,20,0.00,,,0.00,Wunderground v.1.15,2013-01-21 00:10:00,
2013-01-20 17:15:00,50.6,10.9,30.39,SSE,167,0.0,0.0,20,0.00,,,0.00,Wunderground v.1.15,2013-01-21 00:15:00,
2013-01-20 17:20:00,50.0,11.5,30.38,SSE,167,0.0,0.0,21,0.00,,,0.00,Wunderground v.1.15,2013-01-21 00:20:00,
2013-01-20 17:29:00,48.5,11.3,30.39,SSE,167,0.0,1.0,22,0.00,,,0.00,Wunderground v.1.15,2013-01-21 00:29:00,
2013-01-20 17:34:00,47.5,10.5,30.39,SSE,167,0.0,1.0,22,0.00,,,0.00,Wunderground v.1.15,2013-01-21 00:34:00,
2013-01-20 17:39:00,46.6,10.7,30.39,SSE,167,0.0,0.0,23,0.00,,,0.00,Wunderground v.1.15,2013-01-21 00:39:00,
2013-01-20 17:44:00,45.6,10.8,30.39,SSE,167,0.0,0.0,24,0.00,,,0.00,Wunderground v.1.15,2013-01-21 00:44:00,
2013-01-20 17:49:00,44.9,11.1,30.39,SSE,167,0.0,0.0,25,0.00,,,0.00,Wunderground v.1.15,2013-01-21 00:49:00,
2013-01-20 17:55:00,43.9,11.2,30.40,SSE,167,0.0,0.0,26,0.00,,,0.00,Wunderground v.1.15,2013-01-21 00:55:00,
2013-01-20 18:00:00,43.1,10.5,30.40,SSE,167,0.0,0.0,26,0.00,,,0.00,Wunderground v.1.15,2013-01-21 01:00:00,
2013-01-20 18:05:00,42.5,10.8,30.40,SSE,167,0.0,0.0,27,0.00,,,0.00,Wunderground v.1.15,2013-01-21 01:05:00,
2013-01-20 18:10:00,42.0,10.4,30.40,SSE,167,0.0,0.0,27,0.00,,,0.00,Wunderground v.1.15,2013-01-21 01:10:00,
2013-01-20 18:15:00,41.7,10.9,30.40,SSE,167,0.0,0.0,28,0.00,,,0.00,Wunderground v.1.15,2013-01-21 01:15:00,
2013-01-20 18:20:00,41.4,10.7,30.40,SSE,167,0.0,0.0,28,0.00,,,0.00,Wunderground v.1.15,2013-01-21 01:20:00,
2013-01-20 18:24:00,41.3,10.6,30.41,SSE,167,0.0,0.0,28,0.00,,,0.00,Wunderground v.1.15,2013-01-21 01:24:00,
2013-01-20 18:29:00,41.1,10.4,30.41,SSE,167,0.0,0.0,28,0.00,,,0.00,Wunderground v.1.15,2013-01-21 01:29:00,
2013-01-20 18:34:00,41.0,9.5,30.41,SSE,167,0.0,1.0,27,0.00,,,0.00,Wunderground v.1.15,2013-01-21 01:34:00,
2013-01-20 18:39:00,41.7,9.3,30.41,SSE,167,0.0,2.0,26,0.00,,,0.00,Wunderground v.1.15,2013-01-21 01:39:00,
2013-01-20 18:44:00,42.6,8.3,30.41,SSE,167,0.0,2.0,24,0.00,,,0.00,Wunderground v.1.15,2013-01-21 01:44:00,
2013-01-20 18:49:00,43.5,9.0,30.41,SSE,167,1.0,1.0,24,0.00,,,0.00,Wunderground v.1.15,2013-01-21 01:49:00,
2013-01-20 18:54:00,44.0,9.5,30.42,South,177,1.0,1.0,24,0.00,,,0.00,Wunderground v.1.15,2013-01-21 01:54:00,
2013-01-20 18:59:00,43.9,9.4,30.42,South,177,0.0,0.0,24,0.00,,,0.00,Wunderground v.1.15,2013-01-21 01:59:00,
2013-01-20 19:05:00,43.6,9.1,30.42,South,177,0.0,0.0,24,0.00,,,0.00,Wunderground v.1.15,2013-01-21 02:05:00,
2013-01-20 19:10:00,42.9,8.5,30.42,South,177,0.0,0.0,24,0.00,,,0.00,Wunderground v.1.15,2013-01-21 02:10:00,
2013-01-20 19:15:00,42.1,7.8,30.42,South,177,0.0,0.0,24,0.00,,,0.00,Wunderground v.1.15,2013-01-21 02:15:00,
2013-01-20 19:20:00,41.3,8.1,30.43,South,177,0.0,0.0,25,0.00,,,0.00,Wunderground v.1.15,2013-01-21 02:20:00,
2013-01-20 19:25:00,40.7,8.4,30.43,South,177,0.0,0.0,26,0.00,,,0.00,Wunderground v.1.15,2013-01-21 02:25:00,
2013-01-20 19:30:00,41.0,8.7,30.43,South,174,0.0,1.0,26,0.00,,,0.00,Wunderground v.1.15,2013-01-21 02:30:00,
2013-01-20 19:35:00,41.6,9.2,30.43,SSE,153,1.0,2.0,26,0.00,,,0.00,Wunderground v.1.15,2013-01-21 02:35:00,
2013-01-20 19:40:00,42.2,9.7,30.43,NE,34,2.0,2.0,26,0.00,,,0.00,Wunderground v.1.15,2013-01-21 02:40:00,
2013-01-20 19:45:00,42.7,10.1,30.43,North,351,2.0,5.0,26,0.00,,,0.00,Wunderground v.1.15,2013-01-21 02:45:00,
2013-01-20 19:50:00,43.2,9.7,30.43,NNW,340,3.0,3.0,25,0.00,,,0.00,Wunderground v.1.15,2013-01-21 02:50:00,
2013-01-20 19:54:00,43.3,9.8,30.43,NNW,341,2.0,3.0,25,0.00,,,0.00,Wunderground v.1.15,2013-01-21 02:54:00,
2013-01-20 19:59:00,43.0,9.5,30.43,NNW,341,1.0,1.0,25,0.00,,,0.00,Wunderground v.1.15,2013-01-21 02:59:00,
2013-01-20 20:04:00,42.4,9.9,30.43,NNW,341,1.0,1.0,26,0.00,,,0.00,Wunderground v.1.15,2013-01-21 03:04:00,
2013-01-20 20:10:00,41.7,9.3,30.43,NNW,341,0.0,1.0,26,0.00,,,0.00,Wunderground v.1.15,2013-01-21 03:10:00,
2013-01-20 20:15:00,41.3,9.8,30.43,North,355,0.0,3.0,27,0.00,,,0.00,Wunderground v.1.15,2013-01-21 03:15:00,
2013-01-20 20:25:00,41.1,10.4,30.43,North,355,2.0,2.0,28,0.00,,,0.00,Wunderground v.1.15,2013-01-21 03:25:00,
2013-01-20 20:30:00,41.0,10.3,30.43,North,360,2.0,5.0,28,0.00,,,0.00,Wunderground v.1.15,2013-01-21 03:30:00,
2013-01-20 20:35:00,41.1,10.4,30.43,North,5,2.0,5.0,28,0.00,,,0.00,Wunderground v.1.15,2013-01-21 03:35:00,
2013-01-20 20:40:00,40.9,11.0,30.43,North,5,2.0,2.0,29,0.00,,,0.00,Wunderground v.1.15,2013-01-21 03:40:00,
2013-01-20 20:44:00,41.0,10.3,30.43,NNW,342,2.0,3.0,28,0.00,,,0.00,Wunderground v.1.15,2013-01-21 03:44:00,
2013-01-20 20:49:00,41.1,10.4,30.43,North,360,3.0,3.0,28,0.00,,,0.00,Wunderground v.1.15,2013-01-21 03:49:00,
2013-01-20 20:55:00,40.9,11.0,30.43,North,360,2.0,3.0,29,0.00,,,0.00,Wunderground v.1.15,2013-01-21 03:55:00,
2013-01-20 21:00:00,40.5,10.7,30.43,North,5,1.0,1.0,29,0.00,,,0.00,Wunderground v.1.15,2013-01-21 04:00:00,
2013-01-20 21:04:00,40.1,11.1,30.43,North,5,1.0,1.0,30,0.00,,,0.00,Wunderground v.1.15,2013-01-21 04:04:00,
2013-01-20 21:09:00,39.6,11.4,30.44,North,5,0.0,0.0,31,0.00,,,0.00,Wunderground v.1.15,2013-01-21 04:09:00,
2013-01-20 21:14:00,39.0,10.9,30.44,North,5,0.0,0.0,31,0.00,,,0.00,Wunderground v.1.15,2013-01-21 04:14:00,
2013-01-20 21:19:00,38.5,11.1,30.44,North,5,0.0,0.0,32,0.00,,,0.00,Wunderground v.1.15,2013-01-21 04:19:00,
2013-01-20 21:24:00,38.2,10.9,30.44,North,5,0.0,0.0,32,0.00,,,0.00,Wunderground v.1.15,2013-01-21 04:24:00,
2013-01-20 21:29:00,37.9,11.3,30.44,North,5,0.0,0.0,33,0.00,,,0.00,Wunderground v.1.15,2013-01-21 04:29:00,
2013-01-20 21:35:00,37.3,10.8,30.44,North,5,0.0,0.0,33,0.00,,,0.00,Wunderground v.1.15,2013-01-21 04:35:00,
2013-01-20 21:40:00,36.7,10.9,30.44,North,5,0.0,0.0,34,0.00,,,0.00,Wunderground v.1.15,2013-01-21 04:40:00,
2013-01-20 21:45:00,35.9,10.2,30.44,North,5,0.0,0.0,34,0.00,,,0.00,Wunderground v.1.15,2013-01-21 04:45:00,
2013-01-20 21:50:00,35.1,10.2,30.45,North,5,0.0,0.0,35,0.00,,,0.00,Wunderground v.1.15,2013-01-21 04:50:00,
2013-01-20 21:55:00,34.4,10.2,30.44,North,5,0.0,0.0,36,0.00,,,0.00,Wunderground v.1.15,2013-01-21 04:55:00,
2013-01-20 22:00:00,33.5,10.0,30.45,North,5,0.0,0.0,37,0.00,,,0.00,Wunderground v.1.15,2013-01-21 05:00:00,
2013-01-20 22:10:00,32.3,10.1,30.45,North,5,0.0,0.0,39,0.00,,,0.00,Wunderground v.1.15,2013-01-21 05:10:00,
2013-01-20 22:15:00,31.8,9.6,30.45,North,5,0.0,0.0,39,0.00,,,0.00,Wunderground v.1.15,2013-01-21 05:15:00,
2013-01-20 22:20:00,31.3,9.7,30.44,North,5,0.0,0.0,40,0.00,,,0.00,Wunderground v.1.15,2013-01-21 05:20:00,
2013-01-20 22:25:00,31.2,9.6,30.44,North,5,0.0,0.0,40,0.00,,,0.00,Wunderground v.1.15,2013-01-21 05:25:00,
2013-01-20 22:30:00,30.9,9.4,30.44,North,5,0.0,1.0,40,0.00,,,0.00,Wunderground v.1.15,2013-01-21 05:30:00,
2013-01-20 22:35:00,30.5,9.6,30.45,North,5,0.0,1.0,41,0.00,,,0.00,Wunderground v.1.15,2013-01-21 05:35:00,
2013-01-20 22:40:00,30.3,9.9,30.45,North,5,0.0,0.0,42,0.00,,,0.00,Wunderground v.1.15,2013-01-21 05:40:00,
2013-01-20 22:45:00,30.1,9.7,30.44,North,5,0.0,0.0,42,0.00,,,0.00,Wunderground v.1.15,2013-01-21 05:45:00,
2013-01-20 22:50:00,29.8,9.5,30.44,North,5,0.0,0.0,42,0.00,,,0.00,Wunderground v.1.15,2013-01-21 05:50:00,
2013-01-20 22:55:00,29.5,9.2,30.44,North,5,0.0,0.0,42,0.00,,,0.00,Wunderground v.1.15,2013-01-21 05:55:00,
2013-01-20 22:59:00,29.3,9.0,30.44,North,5,0.0,0.0,42,0.00,,,0.00,Wunderground v.1.15,2013-01-21 05:59:00,
2013-01-20 23:04:00,29.0,9.3,30.44,North,5,0.0,0.0,43,0.00,,,0.00,Wunderground v.1.15,2013-01-21 06:04:00,
2013-01-20 23:09:00,28.8,9.6,30.45,North,5,0.0,0.0,44,0.00,,,0.00,Wunderground v.1.15,2013-01-21 06:09:00,
2013-01-20 23:14:00,28.9,9.7,30.45,North,5,0.0,0.0,44,0.00,,,0.00,Wunderground v.1.15,2013-01-21 06:14:00,
2013-01-20 23:20:00,29.2,10.0,30.44,North,5,0.0,0.0,44,0.00,,,0.00,Wunderground v.1.15,2013-01-21 06:20:00,
2013-01-20 23:25:00,29.4,10.1,30.44,North,5,0.0,0.0,44,0.00,,,0.00,Wunderground v.1.15,2013-01-21 06:25:00,
2013-01-20 23:30:00,29.6,10.3,30.44,North,5,0.0,0.0,44,0.00,,,0.00,Wunderground v.1.15,2013-01-21 06:30:00,
2013-01-20 23:35:00,29.8,10.5,30.44,North,5,0.0,0.0,44,0.00,,,0.00,Wunderground v.1.15,2013-01-21 06:35:00,
2013-01-20 23:44:00,31.5,11.5,30.45,North,5,0.0,1.0,43,0.00,,,0.00,Wunderground v.1.15,2013-01-21 06:44:00,
2013-01-20 23:49:00,32.6,11.5,30.45,North,5,1.0,1.0,41,0.00,,,0.00,Wunderground v.1.15,2013-01-21 06:49:00,
2013-01-20 23:54:00,33.1,11.9,30.45,North,5,1.0,1.0,41,0.00,,,0.00,Wunderground v.1.15,2013-01-21 06:54:00,
2013-01-20 23:59:00,33.3,11.5,30.45,North,5,0.0,0.0,40,0.00,,,0.00,Wunderground v.1.15,2013-01-21 06:59:00,